createdAt,value
2023-10-09T00:00:55.466Z,1022.03
2023-10-09T00:01:55.527Z,1022.00
2023-10-09T00:02:55.700Z,1021.95
2023-10-09T00:03:55.532Z,1021.86
2023-10-09T00:04:55.429Z,1021.88
2023-10-09T00:05:55.643Z,1021.77
2023-10-09T00:06:55.607Z,1021.75
2023-10-09T00:07:55.386Z,1021.71
2023-10-09T00:08:55.504Z,1021.70
2023-10-09T00:09:55.375Z,1021.68
2023-10-09T00:10:55.438Z,1021.64
2023-10-09T00:11:55.406Z,1021.67
2023-10-09T00:12:55.348Z,1021.57
2023-10-09T00:13:55.335Z,1021.55
2023-10-09T00:14:55.465Z,1021.57
2023-10-09T00:15:55.352Z,1021.62
2023-10-09T00:16:55.335Z,1021.60
2023-10-09T00:17:55.345Z,1021.55
2023-10-09T00:18:55.305Z,1021.53
2023-10-09T00:19:55.264Z,1021.54
2023-10-09T00:20:55.289Z,1021.52
2023-10-09T00:21:55.263Z,1021.48
2023-10-09T00:22:55.216Z,1021.45
2023-10-09T00:23:55.269Z,1021.45
2023-10-09T00:24:55.192Z,1021.39
2023-10-09T00:25:55.202Z,1021.42
2023-10-09T00:26:55.214Z,1021.42
2023-10-09T00:27:55.166Z,1021.42
2023-10-09T00:28:55.155Z,1021.46
2023-10-09T00:29:55.225Z,1021.46
2023-10-09T00:30:55.173Z,1021.47
2023-10-09T00:31:55.158Z,1021.46
2023-10-09T00:32:55.178Z,1021.50
2023-10-09T00:33:55.158Z,1021.54
2023-10-09T00:34:55.088Z,1021.54
2023-10-09T00:35:55.089Z,1021.47
2023-10-09T00:36:55.122Z,1021.47
2023-10-09T00:37:55.109Z,1021.43
2023-10-09T00:38:55.089Z,1021.43
2023-10-09T00:39:55.049Z,1021.33
2023-10-09T00:40:55.076Z,1021.33
2023-10-09T00:42:16.120Z,1021.31
2023-10-09T00:42:54.997Z,1021.17
2023-10-09T00:43:55.069Z,1021.21
2023-10-09T00:44:55.045Z,1021.14
2023-10-09T00:45:55.003Z,1021.11
2023-10-09T00:46:54.999Z,1021.04
2023-10-09T00:47:54.998Z,1020.99
2023-10-09T00:48:54.950Z,1021.03
2023-10-09T00:49:55.011Z,1020.97
2023-10-09T00:50:54.939Z,1020.95
2023-10-09T00:51:54.922Z,1020.95
2023-10-09T00:52:54.985Z,1020.93
2023-10-09T00:53:54.946Z,1020.94
2023-10-09T00:54:54.905Z,1020.96
2023-10-09T00:55:54.862Z,1021.02
2023-10-09T00:56:54.978Z,1021.02
2023-10-09T00:57:54.886Z,1021.04
2023-10-09T00:58:54.897Z,1021.08
2023-10-09T00:59:54.909Z,1021.08
2023-10-09T01:00:54.817Z,1021.09
2023-10-09T01:01:54.992Z,1021.04
2023-10-09T01:02:54.933Z,1021.04
2023-10-09T01:03:54.993Z,1021.04
2023-10-09T01:04:54.775Z,1021.02
2023-10-09T01:05:54.784Z,1020.95
2023-10-09T01:06:54.800Z,1021.00
2023-10-09T01:07:54.799Z,1020.99
2023-10-09T01:08:54.763Z,1020.98
2023-10-09T01:09:54.749Z,1020.95
2023-10-09T01:10:54.725Z,1020.87
2023-10-09T01:11:54.784Z,1020.87
2023-10-09T01:12:54.757Z,1020.84
2023-10-09T01:13:54.776Z,1020.80
2023-10-09T01:14:54.708Z,1020.79
2023-10-09T01:15:54.703Z,1020.72
2023-10-09T01:16:54.682Z,1020.65
2023-10-09T01:17:54.729Z,1020.75
2023-10-09T01:18:54.745Z,1020.74
2023-10-09T01:19:54.619Z,1020.67
2023-10-09T01:20:54.713Z,1020.68
2023-10-09T01:21:54.610Z,1020.65
2023-10-09T01:22:54.594Z,1020.57
2023-10-09T01:23:54.649Z,1020.51
2023-10-09T01:24:54.566Z,1020.45
2023-10-09T01:25:54.549Z,1020.43
2023-10-09T01:26:54.576Z,1020.42
2023-10-09T01:27:54.534Z,1020.47
2023-10-09T01:28:54.538Z,1020.47
2023-10-09T01:29:54.586Z,1020.41
2023-10-09T01:30:54.505Z,1020.37
2023-10-09T01:31:54.481Z,1020.37
2023-10-09T01:32:54.550Z,1020.36
2023-10-09T01:33:54.625Z,1020.31
2023-10-09T01:34:54.466Z,1020.34
2023-10-09T01:35:54.474Z,1020.31
2023-10-09T01:36:54.439Z,1020.36
2023-10-09T01:37:54.425Z,1020.27
2023-10-09T01:38:54.483Z,1020.23
2023-10-09T01:39:54.435Z,1020.22
2023-10-09T01:40:54.392Z,1020.13
2023-10-09T01:41:54.464Z,1020.03
2023-10-09T01:42:54.400Z,1019.97
2023-10-09T01:43:54.378Z,1019.99
2023-10-09T01:44:54.404Z,1019.97
2023-10-09T01:45:54.424Z,1019.91
2023-10-09T01:46:54.348Z,1019.93
2023-10-09T01:47:54.389Z,1019.91
2023-10-09T01:48:54.349Z,1019.95
2023-10-09T01:49:54.290Z,1019.95
2023-10-09T01:50:54.331Z,1019.91
2023-10-09T01:51:54.276Z,1019.82
2023-10-09T01:52:54.312Z,1019.85
2023-10-09T01:53:54.299Z,1019.82
2023-10-09T01:54:54.251Z,1019.86
2023-10-09T01:55:54.233Z,1019.81
2023-10-09T01:56:54.291Z,1019.76
2023-10-09T01:57:55.237Z,1019.77
2023-10-09T01:58:54.224Z,1019.63
2023-10-09T01:59:54.593Z,1019.65
2023-10-09T02:00:54.185Z,1019.67
2023-10-09T02:01:54.162Z,1019.70
2023-10-09T02:02:54.282Z,1019.71
2023-10-09T02:03:54.291Z,1019.71
2023-10-09T02:04:54.189Z,1019.73
2023-10-09T02:05:54.181Z,1019.77
2023-10-09T02:06:54.166Z,1019.72
2023-10-09T02:07:54.250Z,1019.63
2023-10-09T02:08:54.143Z,1019.65
2023-10-09T02:09:54.104Z,1019.63
2023-10-09T02:10:54.071Z,1019.62
2023-10-09T02:11:54.112Z,1019.56
2023-10-09T02:12:54.050Z,1019.59
2023-10-09T02:13:54.105Z,1019.62
2023-10-09T02:14:54.066Z,1019.63
2023-10-09T02:15:54.048Z,1019.51
2023-10-09T02:16:54.005Z,1019.51
2023-10-09T02:17:54.034Z,1019.44
2023-10-09T02:18:54.660Z,1019.47
2023-10-09T02:19:54.024Z,1019.53
2023-10-09T02:20:54.017Z,1019.49
2023-10-09T02:21:53.959Z,1019.52
2023-10-09T02:22:53.966Z,1019.52
2023-10-09T02:23:53.918Z,1019.53
2023-10-09T02:24:54.003Z,1019.53
2023-10-09T02:25:53.925Z,1019.52
2023-10-09T02:26:53.905Z,1019.53
2023-10-09T02:27:53.917Z,1019.54
2023-10-09T02:28:53.901Z,1019.53
2023-10-09T02:29:53.870Z,1019.51
2023-10-09T02:30:53.985Z,1019.48
2023-10-09T02:31:53.855Z,1019.44
2023-10-09T02:32:53.912Z,1019.46
2023-10-09T02:33:53.819Z,1019.45
2023-10-09T02:34:53.823Z,1019.49
2023-10-09T02:35:53.812Z,1019.50
2023-10-09T02:36:53.792Z,1019.50
2023-10-09T02:37:53.784Z,1019.43
2023-10-09T02:38:53.805Z,1019.38
2023-10-09T02:39:53.774Z,1019.43
2023-10-09T02:40:53.805Z,1019.42
2023-10-09T02:41:53.740Z,1019.38
2023-10-09T02:42:53.829Z,1019.43
2023-10-09T02:43:53.723Z,1019.37
2023-10-09T02:44:53.748Z,1019.41
2023-10-09T02:45:53.725Z,1019.33
2023-10-09T02:46:54.583Z,1019.40
2023-10-09T02:47:54.483Z,1019.42
2023-10-09T02:48:53.748Z,1019.41
2023-10-09T02:49:53.654Z,1019.38
2023-10-09T02:50:53.633Z,1019.36
2023-10-09T02:51:53.643Z,1019.37
2023-10-09T02:52:53.710Z,1019.38
2023-10-09T02:53:53.598Z,1019.40
2023-10-09T02:54:53.589Z,1019.41
2023-10-09T02:55:53.609Z,1019.38
2023-10-09T02:56:53.557Z,1019.38
2023-10-09T02:57:53.604Z,1019.28
2023-10-09T02:58:53.586Z,1019.35
2023-10-09T02:59:53.558Z,1019.31
2023-10-09T03:00:53.557Z,1019.26
2023-10-09T03:01:53.534Z,1019.26
2023-10-09T03:02:53.528Z,1019.32
2023-10-09T03:03:53.609Z,1019.37
2023-10-09T03:04:53.508Z,1019.39
2023-10-09T03:05:53.496Z,1019.46
2023-10-09T03:06:53.452Z,1019.46
2023-10-09T03:07:53.454Z,1019.47
2023-10-09T03:08:53.480Z,1019.46
2023-10-09T03:09:53.450Z,1019.51
2023-10-09T03:10:53.428Z,1019.53
2023-10-09T03:11:53.442Z,1019.46
2023-10-09T03:12:53.408Z,1019.50
2023-10-09T03:13:53.399Z,1019.53
2023-10-09T03:14:53.416Z,1019.44
2023-10-09T03:15:53.405Z,1019.45
2023-10-09T03:16:53.405Z,1019.43
2023-10-09T03:17:53.429Z,1019.39
2023-10-09T03:18:53.369Z,1019.40
2023-10-09T03:19:53.410Z,1019.41
2023-10-09T03:20:53.313Z,1019.34
2023-10-09T03:21:53.304Z,1019.39
2023-10-09T03:22:53.332Z,1019.32
2023-10-09T03:23:53.282Z,1019.22
2023-10-09T03:24:53.288Z,1019.20
2023-10-09T03:25:55.575Z,1019.12
2023-10-09T03:26:54.278Z,1019.05
2023-10-09T03:27:53.261Z,1019.04
2023-10-09T03:28:53.245Z,1018.92
2023-10-09T03:29:53.220Z,1018.84
2023-10-09T03:30:53.305Z,1018.83
2023-10-09T03:31:53.197Z,1018.78
2023-10-09T03:32:53.403Z,1018.83
2023-10-09T03:33:53.279Z,1018.81
2023-10-09T03:34:53.184Z,1018.86
2023-10-09T03:35:53.296Z,1018.83
2023-10-09T03:36:53.175Z,1018.77
2023-10-09T03:37:53.137Z,1018.86
2023-10-09T03:38:53.113Z,1018.82
2023-10-09T03:39:53.153Z,1018.80
2023-10-09T03:40:53.153Z,1018.84
2023-10-09T03:41:53.204Z,1018.83
2023-10-09T03:42:53.095Z,1018.88
2023-10-09T03:43:53.188Z,1018.80
2023-10-09T03:44:53.111Z,1018.77
2023-10-09T03:45:53.087Z,1018.73
2023-10-09T03:46:53.030Z,1018.78
2023-10-09T03:47:53.544Z,1018.76
2023-10-09T03:48:53.030Z,1018.74
2023-10-09T03:49:53.035Z,1018.75
2023-10-09T03:50:53.010Z,1018.79
2023-10-09T03:51:53.095Z,1018.71
2023-10-09T03:52:56.153Z,1018.68
2023-10-09T03:53:53.008Z,1018.58
2023-10-09T03:54:53.003Z,1018.55
2023-10-09T03:55:52.979Z,1018.52
2023-10-09T03:56:52.944Z,1018.43
2023-10-09T03:57:52.984Z,1018.48
2023-10-09T03:58:52.950Z,1018.42
2023-10-09T03:59:53.294Z,1018.40
2023-10-09T04:00:52.990Z,1018.37
2023-10-09T04:01:52.916Z,1018.38
2023-10-09T04:02:52.935Z,1018.33
2023-10-09T04:03:53.014Z,1018.38
2023-10-09T04:04:53.413Z,1018.32
2023-10-09T04:05:52.831Z,1018.33
2023-10-09T04:06:52.868Z,1018.35
2023-10-09T04:07:52.823Z,1018.32
2023-10-09T04:08:52.865Z,1018.18
2023-10-09T04:09:52.828Z,1018.28
2023-10-09T04:10:55.196Z,1018.26
2023-10-09T04:11:53.754Z,1018.26
2023-10-09T04:12:52.758Z,1018.24
2023-10-09T04:13:52.756Z,1018.27
2023-10-09T04:14:52.764Z,1018.30
2023-10-09T04:15:52.718Z,1018.29
2023-10-09T04:16:52.726Z,1018.27
2023-10-09T04:17:52.742Z,1018.30
2023-10-09T04:18:52.725Z,1018.29
2023-10-09T04:19:52.704Z,1018.32
2023-10-09T04:20:52.693Z,1018.34
2023-10-09T04:21:52.668Z,1018.23
2023-10-09T04:22:52.870Z,1018.24
2023-10-09T04:23:52.636Z,1018.23
2023-10-09T04:24:52.676Z,1018.20
2023-10-09T04:25:52.636Z,1018.24
2023-10-09T04:26:52.637Z,1018.23
2023-10-09T04:27:52.598Z,1018.22
2023-10-09T04:28:52.584Z,1018.29
2023-10-09T04:29:52.583Z,1018.25
2023-10-09T04:30:52.672Z,1018.30
2023-10-09T04:31:52.564Z,1018.28
2023-10-09T04:32:52.595Z,1018.28
2023-10-09T04:33:52.549Z,1018.26
2023-10-09T04:34:52.528Z,1018.29
2023-10-09T04:35:52.551Z,1018.16
2023-10-09T04:36:52.507Z,1018.25
2023-10-09T04:37:52.511Z,1018.22
2023-10-09T04:38:52.490Z,1018.15
2023-10-09T04:39:52.466Z,1018.17
2023-10-09T04:40:52.468Z,1018.25
2023-10-09T04:41:52.460Z,1018.19
2023-10-09T04:42:52.450Z,1018.17
2023-10-09T04:43:52.443Z,1018.12
2023-10-09T04:44:52.414Z,1018.09
2023-10-09T04:45:52.403Z,1018.04
2023-10-09T04:46:52.432Z,1018.04
2023-10-09T04:47:52.400Z,1018.00
2023-10-09T04:48:52.403Z,1018.00
2023-10-09T04:49:52.362Z,1017.99
2023-10-09T04:50:52.358Z,1017.96
2023-10-09T04:51:52.347Z,1017.91
2023-10-09T04:52:52.358Z,1017.97
2023-10-09T04:53:52.326Z,1017.98
2023-10-09T04:54:52.333Z,1017.87
2023-10-09T04:55:52.303Z,1017.80
2023-10-09T04:56:52.288Z,1017.71
2023-10-09T04:57:52.310Z,1017.72
2023-10-09T04:58:52.270Z,1017.65
2023-10-09T04:59:52.307Z,1017.65
2023-10-09T05:00:52.252Z,1017.65
2023-10-09T05:01:52.262Z,1017.59
2023-10-09T05:02:52.293Z,1017.66
2023-10-09T05:03:52.298Z,1017.68
2023-10-09T05:04:52.206Z,1017.74
2023-10-09T05:05:52.201Z,1017.77
2023-10-09T05:06:52.193Z,1017.83
2023-10-09T05:07:52.179Z,1017.78
2023-10-09T05:08:52.198Z,1017.86
2023-10-09T05:09:52.190Z,1017.85
2023-10-09T05:10:52.160Z,1017.80
2023-10-09T05:11:52.159Z,1017.77
2023-10-09T05:12:52.115Z,1017.74
2023-10-09T05:13:52.109Z,1017.73
2023-10-09T05:14:52.146Z,1017.69
2023-10-09T05:15:52.094Z,1017.68
2023-10-09T05:16:52.119Z,1017.65
2023-10-09T05:17:52.072Z,1017.63
2023-10-09T05:18:52.077Z,1017.60
2023-10-09T05:19:52.082Z,1017.67
2023-10-09T05:20:52.045Z,1017.65
2023-10-09T05:21:52.017Z,1017.66
2023-10-09T05:22:52.055Z,1017.59
2023-10-09T05:23:52.003Z,1017.59
2023-10-09T05:24:51.995Z,1017.61
2023-10-09T05:25:52.008Z,1017.65
2023-10-09T05:26:52.023Z,1017.64
2023-10-09T05:27:52.538Z,1017.66
2023-10-09T05:28:51.954Z,1017.72
2023-10-09T05:29:51.929Z,1017.74
2023-10-09T05:30:51.957Z,1017.77
2023-10-09T05:31:51.954Z,1017.80
2023-10-09T05:32:51.939Z,1017.77
2023-10-09T05:34:51.884Z,1017.84
2023-10-09T05:35:51.880Z,1017.86
2023-10-09T05:36:51.888Z,1017.89
2023-10-09T05:37:51.845Z,1017.85
2023-10-09T05:38:51.855Z,1017.88
2023-10-09T05:39:51.819Z,1017.97
2023-10-09T05:40:51.830Z,1017.96
2023-10-09T05:41:51.833Z,1017.93
2023-10-09T05:42:51.866Z,1017.90
2023-10-09T05:43:51.818Z,1017.93
2023-10-09T05:44:51.788Z,1017.90
2023-10-09T05:45:53.518Z,1017.84
2023-10-09T05:46:51.861Z,1017.92
2023-10-09T05:47:52.002Z,1017.89
2023-10-09T05:48:51.778Z,1017.82
2023-10-09T05:49:51.834Z,1017.82
2023-10-09T05:50:51.739Z,1017.74
2023-10-09T05:51:51.737Z,1017.78
2023-10-09T05:52:51.853Z,1017.74
2023-10-09T05:53:51.692Z,1017.85
2023-10-09T05:54:51.681Z,1017.86
2023-10-09T05:55:51.670Z,1017.83
2023-10-09T05:56:51.658Z,1017.84
2023-10-09T05:57:51.637Z,1017.81
2023-10-09T05:58:51.708Z,1017.83
2023-10-09T05:59:51.683Z,1017.80
2023-10-09T06:00:51.642Z,1017.79
2023-10-09T06:01:51.687Z,1017.80
2023-10-09T06:03:01.254Z,1017.72
2023-10-09T06:03:52.928Z,1017.69
2023-10-09T06:04:51.696Z,1017.64
2023-10-09T06:05:51.652Z,1017.64
2023-10-09T06:06:51.553Z,1017.62
2023-10-09T06:07:51.522Z,1017.55
2023-10-09T06:08:51.535Z,1017.55
2023-10-09T06:09:53.200Z,1017.54
2023-10-09T06:10:51.515Z,1017.46
2023-10-09T06:11:51.561Z,1017.51
2023-10-09T06:12:54.208Z,1017.50
2023-10-09T06:13:51.454Z,1017.41
2023-10-09T06:14:51.533Z,1017.36
2023-10-09T06:15:51.560Z,1017.40
2023-10-09T06:16:51.480Z,1017.45
2023-10-09T06:17:51.577Z,1017.44
2023-10-09T06:18:51.431Z,1017.43
2023-10-09T06:19:51.398Z,1017.49
2023-10-09T06:20:51.728Z,1017.49
2023-10-09T06:21:51.383Z,1017.48
2023-10-09T06:22:51.393Z,1017.47
2023-10-09T06:23:51.409Z,1017.48
2023-10-09T06:24:51.374Z,1017.52
2023-10-09T06:25:51.416Z,1017.48
2023-10-09T06:26:51.561Z,1017.49
2023-10-09T06:27:51.370Z,1017.48
2023-10-09T06:28:51.329Z,1017.46
2023-10-09T06:29:52.030Z,1017.48
2023-10-09T06:30:51.479Z,1017.53
2023-10-09T06:31:52.184Z,1017.51
2023-10-09T06:32:51.409Z,1017.58
2023-10-09T06:33:51.291Z,1017.60
2023-10-09T06:34:51.264Z,1017.62
2023-10-09T06:35:51.224Z,1017.62
2023-10-09T06:36:51.312Z,1017.56
2023-10-09T06:37:51.365Z,1017.60
2023-10-09T06:38:51.204Z,1017.58
2023-10-09T06:39:51.261Z,1017.60
2023-10-09T06:40:51.174Z,1017.58
2023-10-09T06:41:51.171Z,1017.64
2023-10-09T06:42:51.221Z,1017.64
2023-10-09T06:43:51.316Z,1017.71
2023-10-09T06:44:51.124Z,1017.72
2023-10-09T06:45:51.307Z,1017.78
2023-10-09T06:46:51.178Z,1017.75
2023-10-09T06:47:51.148Z,1017.83
2023-10-09T06:48:51.220Z,1017.77
2023-10-09T06:49:51.062Z,1017.77
2023-10-09T06:50:51.154Z,1017.73
2023-10-09T06:51:51.060Z,1017.70
2023-10-09T06:52:51.061Z,1017.67
2023-10-09T06:53:51.038Z,1017.67
2023-10-09T06:54:51.235Z,1017.57
2023-10-09T06:55:51.074Z,1017.51
2023-10-09T06:56:51.015Z,1017.53
2023-10-09T06:57:51.024Z,1017.42
2023-10-09T06:58:51.010Z,1017.41
2023-10-09T06:59:51.004Z,1017.36
2023-10-09T07:00:51.008Z,1017.39
2023-10-09T07:01:51.975Z,1017.41
2023-10-09T07:02:51.087Z,1017.45
2023-10-09T07:03:50.996Z,1017.47
2023-10-09T07:04:50.959Z,1017.41
2023-10-09T07:05:51.097Z,1017.44
2023-10-09T07:06:50.903Z,1017.42
2023-10-09T07:07:50.967Z,1017.45
2023-10-09T07:08:50.879Z,1017.48
2023-10-09T07:09:50.904Z,1017.50
2023-10-09T07:10:50.854Z,1017.55
2023-10-09T07:11:51.149Z,1017.51
2023-10-09T07:12:50.870Z,1017.55
2023-10-09T07:13:50.843Z,1017.50
2023-10-09T07:14:50.827Z,1017.53
2023-10-09T07:15:50.935Z,1017.46
2023-10-09T07:16:50.833Z,1017.50
2023-10-09T07:17:50.857Z,1017.48
2023-10-09T07:18:51.169Z,1017.50
2023-10-09T07:19:50.758Z,1017.51
2023-10-09T07:20:50.724Z,1017.49
2023-10-09T07:21:50.756Z,1017.53
2023-10-09T07:22:50.872Z,1017.57
2023-10-09T07:23:50.752Z,1017.55
2023-10-09T07:24:50.907Z,1017.57
2023-10-09T07:25:50.745Z,1017.55
2023-10-09T07:26:50.725Z,1017.53
2023-10-09T07:27:51.285Z,1017.55
2023-10-09T07:28:50.694Z,1017.50
2023-10-09T07:29:50.714Z,1017.43
2023-10-09T07:30:50.735Z,1017.42
2023-10-09T07:31:50.762Z,1017.47
2023-10-09T07:32:50.660Z,1017.47
2023-10-09T07:33:50.639Z,1017.48
2023-10-09T07:34:50.606Z,1017.49
2023-10-09T07:35:50.687Z,1017.56
2023-10-09T07:36:50.638Z,1017.59
2023-10-09T07:37:50.580Z,1017.52
2023-10-09T07:38:50.562Z,1017.58
2023-10-09T07:39:50.613Z,1017.61
2023-10-09T07:40:50.573Z,1017.60
2023-10-09T07:41:50.602Z,1017.69
2023-10-09T07:42:50.577Z,1017.69
2023-10-09T07:43:50.501Z,1017.68
2023-10-09T07:44:50.505Z,1017.69
2023-10-09T07:45:50.567Z,1017.83
2023-10-09T07:46:50.491Z,1017.80
2023-10-09T07:47:50.525Z,1017.87
2023-10-09T07:48:50.454Z,1017.90
2023-10-09T07:49:50.448Z,1017.88
2023-10-09T07:50:50.638Z,1017.79
2023-10-09T07:51:50.420Z,1017.83
2023-10-09T07:52:50.412Z,1017.83
2023-10-09T07:53:50.404Z,1017.83
2023-10-09T07:54:50.489Z,1017.84
2023-10-09T07:55:50.427Z,1017.88
2023-10-09T07:56:50.380Z,1017.88
2023-10-09T07:57:50.422Z,1017.96
2023-10-09T07:58:50.341Z,1017.98
2023-10-09T07:59:50.348Z,1018.03
2023-10-09T08:00:50.335Z,1018.00
2023-10-09T08:01:50.352Z,1018.05
2023-10-09T08:02:50.414Z,1018.05
2023-10-09T08:03:50.682Z,1018.03
2023-10-09T08:04:50.307Z,1017.99
2023-10-09T08:05:50.307Z,1018.00
2023-10-09T08:07:02.786Z,1017.96
2023-10-09T08:08:02.188Z,1018.00
2023-10-09T08:08:51.226Z,1017.93
2023-10-09T08:09:50.270Z,1017.99
2023-10-09T08:10:50.224Z,1018.04
2023-10-09T08:11:50.223Z,1018.02
2023-10-09T08:12:50.349Z,1017.99
2023-10-09T08:13:50.197Z,1017.96
2023-10-09T08:14:50.219Z,1017.96
2023-10-09T08:15:50.323Z,1017.96
2023-10-09T08:16:50.194Z,1017.98
2023-10-09T08:17:50.284Z,1017.96
2023-10-09T08:18:50.190Z,1017.94
2023-10-09T08:19:50.127Z,1017.96
2023-10-09T08:20:50.095Z,1017.93
2023-10-09T08:21:50.145Z,1017.89
2023-10-09T08:22:50.096Z,1017.86
2023-10-09T08:23:50.148Z,1017.86
2023-10-09T08:24:50.244Z,1017.77
2023-10-09T08:25:50.089Z,1017.72
2023-10-09T08:26:50.088Z,1017.76
2023-10-09T08:27:50.067Z,1017.79
2023-10-09T08:28:50.117Z,1017.81
2023-10-09T08:29:50.024Z,1017.84
2023-10-09T08:30:50.320Z,1017.80
2023-10-09T08:31:50.052Z,1017.80
2023-10-09T08:35:50.346Z,1017.75
2023-10-09T08:36:50.081Z,1017.73
2023-10-09T08:37:50.062Z,1017.77
2023-10-09T08:38:49.928Z,1017.76
2023-10-09T08:39:49.986Z,1017.76
2023-10-09T08:40:49.982Z,1017.76
2023-10-09T08:41:49.886Z,1017.77
2023-10-09T08:42:49.934Z,1017.74
2023-10-09T08:43:49.875Z,1017.74
2023-10-09T08:44:49.935Z,1017.82
2023-10-09T08:45:49.901Z,1017.82
2023-10-09T08:46:49.841Z,1017.79
2023-10-09T08:47:49.902Z,1017.79
2023-10-09T08:48:49.818Z,1017.84
2023-10-09T08:49:49.933Z,1017.92
2023-10-09T08:50:49.779Z,1017.93
2023-10-09T08:51:49.868Z,1017.94
2023-10-09T08:52:50.786Z,1017.92
2023-10-09T08:53:49.750Z,1017.88
2023-10-09T08:54:49.762Z,1017.80
2023-10-09T08:55:49.833Z,1017.73
2023-10-09T08:56:49.745Z,1017.72
2023-10-09T08:57:49.777Z,1017.70
2023-10-09T08:58:49.727Z,1017.70
2023-10-09T08:59:49.721Z,1017.68
2023-10-09T09:00:49.821Z,1017.67
2023-10-09T09:01:49.717Z,1017.78
2023-10-09T09:02:49.694Z,1017.69
2023-10-09T09:03:49.737Z,1017.66
2023-10-09T09:04:49.706Z,1017.72
2023-10-09T09:05:49.887Z,1017.72
2023-10-09T09:06:49.670Z,1017.77
2023-10-09T09:07:49.622Z,1017.70
2023-10-09T09:08:49.637Z,1017.72
2023-10-09T09:09:49.564Z,1017.67
2023-10-09T09:10:49.602Z,1017.65
2023-10-09T09:11:49.602Z,1017.69
2023-10-09T09:12:49.535Z,1017.67
2023-10-09T09:13:49.782Z,1017.69
2023-10-09T09:14:49.554Z,1017.69
2023-10-09T09:15:49.527Z,1017.72
2023-10-09T09:16:49.739Z,1017.75
2023-10-09T09:17:49.541Z,1017.72
2023-10-09T09:18:49.465Z,1017.69
2023-10-09T09:19:49.543Z,1017.70
2023-10-09T09:20:49.458Z,1017.66
2023-10-09T09:21:49.459Z,1017.70
2023-10-09T09:22:49.498Z,1017.68
2023-10-09T09:23:49.417Z,1017.67
2023-10-09T09:24:49.411Z,1017.62
2023-10-09T09:25:49.725Z,1017.64
2023-10-09T09:26:49.421Z,1017.62
2023-10-09T09:27:49.394Z,1017.61
2023-10-09T09:28:49.433Z,1017.57
2023-10-09T09:29:49.343Z,1017.61
2023-10-09T09:30:49.344Z,1017.60
2023-10-09T09:31:49.417Z,1017.51
2023-10-09T09:32:49.391Z,1017.58
2023-10-09T09:33:49.306Z,1017.56
2023-10-09T09:34:49.609Z,1017.47
2023-10-09T09:35:49.289Z,1017.53
2023-10-09T09:36:49.296Z,1017.42
2023-10-09T09:37:49.343Z,1017.42
2023-10-09T09:38:49.655Z,1017.42
2023-10-09T09:39:55.380Z,1017.46
2023-10-09T09:40:50.259Z,1017.45
2023-10-09T09:41:49.223Z,1017.47
2023-10-09T09:42:49.230Z,1017.40
2023-10-09T09:43:49.255Z,1017.48
2023-10-09T09:44:49.199Z,1017.51
2023-10-09T09:45:49.188Z,1017.47
2023-10-09T09:46:49.238Z,1017.48
2023-10-09T09:47:49.239Z,1017.51
2023-10-09T09:48:49.146Z,1017.43
2023-10-09T09:49:49.187Z,1017.38
2023-10-09T09:50:49.163Z,1017.46
2023-10-09T09:51:49.131Z,1017.50
2023-10-09T09:52:49.139Z,1017.46
2023-10-09T09:53:49.155Z,1017.36
2023-10-09T09:54:49.068Z,1017.41
2023-10-09T09:55:49.135Z,1017.47
2023-10-09T09:56:49.066Z,1017.42
2023-10-09T09:57:49.078Z,1017.42
2023-10-09T09:58:49.119Z,1017.41
2023-10-09T09:59:49.163Z,1017.44
2023-10-09T10:00:49.098Z,1017.35
2023-10-09T10:01:49.179Z,1017.35
2023-10-09T10:02:49.187Z,1017.39
2023-10-09T10:03:49.018Z,1017.38
2023-10-09T10:04:48.970Z,1017.36
2023-10-09T10:05:48.979Z,1017.34
2023-10-09T10:06:48.967Z,1017.32
2023-10-09T10:07:49.002Z,1017.27
2023-10-09T10:08:48.961Z,1017.28
2023-10-09T10:09:48.921Z,1017.25
2023-10-09T10:10:49.342Z,1017.27
2023-10-09T10:11:48.906Z,1017.25
2023-10-09T10:12:48.908Z,1017.27
2023-10-09T10:13:48.927Z,1017.28
2023-10-09T10:14:48.889Z,1017.28
2023-10-09T10:15:48.864Z,1017.29
2023-10-09T10:16:48.927Z,1017.31
2023-10-09T10:17:49.012Z,1017.35
2023-10-09T10:18:48.848Z,1017.33
2023-10-09T10:19:48.857Z,1017.42
2023-10-09T10:20:48.802Z,1017.42
2023-10-09T10:21:48.812Z,1017.51
2023-10-09T10:22:48.817Z,1017.51
2023-10-09T10:23:49.040Z,1017.48
2023-10-09T10:24:48.770Z,1017.51
2023-10-09T10:25:48.800Z,1017.52
2023-10-09T10:26:48.753Z,1017.46
2023-10-09T10:27:48.802Z,1017.54
2023-10-09T10:28:48.794Z,1017.55
2023-10-09T10:29:48.708Z,1017.48
2023-10-09T10:30:48.805Z,1017.45
2023-10-09T10:31:48.724Z,1017.43
2023-10-09T10:32:48.730Z,1017.42
2023-10-09T10:33:48.700Z,1017.32
2023-10-09T10:34:48.668Z,1017.33
2023-10-09T10:35:48.657Z,1017.31
2023-10-09T10:36:48.618Z,1017.33
2023-10-09T10:37:48.645Z,1017.32
2023-10-09T10:38:48.621Z,1017.28
2023-10-09T10:39:48.638Z,1017.27
2023-10-09T10:40:48.629Z,1017.24
2023-10-09T10:41:48.617Z,1017.28
2023-10-09T10:42:48.582Z,1017.23
2023-10-09T10:43:48.677Z,1017.24
2023-10-09T10:44:48.566Z,1017.21
2023-10-09T10:45:48.547Z,1017.25
2023-10-09T10:46:48.570Z,1017.21
2023-10-09T10:47:48.534Z,1017.21
2023-10-09T10:48:48.596Z,1017.20
2023-10-09T10:49:48.565Z,1017.18
2023-10-09T10:50:48.540Z,1017.18
2023-10-09T10:51:48.496Z,1017.16
2023-10-09T10:52:48.584Z,1017.23
2023-10-09T10:53:48.928Z,1017.30
2023-10-09T10:54:48.462Z,1017.24
2023-10-09T10:55:48.518Z,1017.24
2023-10-09T10:56:48.449Z,1017.19
2023-10-09T10:57:48.412Z,1017.23
2023-10-09T10:58:48.517Z,1017.27
2023-10-09T10:59:48.376Z,1017.34
2023-10-09T11:00:48.514Z,1017.39
2023-10-09T11:01:48.450Z,1017.40
2023-10-09T11:02:48.520Z,1017.42
2023-10-09T11:03:48.396Z,1017.44
2023-10-09T11:04:48.490Z,1017.41
2023-10-09T11:05:48.371Z,1017.46
2023-10-09T11:06:48.360Z,1017.51
2023-10-09T11:07:48.313Z,1017.43
2023-10-09T11:08:48.280Z,1017.43
2023-10-09T11:09:52.913Z,1017.44
2023-10-09T11:10:49.264Z,1017.41
2023-10-09T11:11:48.334Z,1017.40
2023-10-09T11:12:48.239Z,1017.38
2023-10-09T11:13:48.267Z,1017.39
2023-10-09T11:14:48.227Z,1017.34
2023-10-09T11:15:48.224Z,1017.36
2023-10-09T11:16:48.263Z,1017.33
2023-10-09T11:17:48.284Z,1017.37
2023-10-09T11:18:48.181Z,1017.33
2023-10-09T11:19:48.198Z,1017.26
2023-10-09T11:20:48.190Z,1017.25
2023-10-09T11:21:48.164Z,1017.22
2023-10-09T11:22:48.185Z,1017.22
2023-10-09T11:23:48.111Z,1017.14
2023-10-09T11:24:48.159Z,1017.21
2023-10-09T11:25:48.129Z,1017.20
2023-10-09T11:26:48.118Z,1017.19
2023-10-09T11:27:48.099Z,1017.19
2023-10-09T11:28:48.185Z,1017.20
2023-10-09T11:29:48.067Z,1017.13
2023-10-09T11:30:48.060Z,1017.17
2023-10-09T11:31:48.069Z,1017.16
2023-10-09T11:32:48.138Z,1017.16
2023-10-09T11:33:48.003Z,1017.17
2023-10-09T11:34:48.095Z,1017.12
2023-10-09T11:35:47.980Z,1017.10
2023-10-09T11:36:48.012Z,1017.04
2023-10-09T11:37:47.988Z,1016.96
2023-10-09T11:38:47.977Z,1017.02
2023-10-09T11:39:47.970Z,1017.00
2023-10-09T11:40:47.933Z,1016.99
2023-10-09T11:41:47.957Z,1016.92
2023-10-09T11:42:48.920Z,1016.98
2023-10-09T11:43:47.955Z,1017.01
2023-10-09T11:44:47.898Z,1017.02
2023-10-09T11:45:49.062Z,1017.00
2023-10-09T11:46:47.924Z,1016.98
2023-10-09T11:47:48.016Z,1017.00
2023-10-09T11:48:47.905Z,1016.93
2023-10-09T11:49:47.900Z,1016.86
2023-10-09T11:50:47.854Z,1016.91
2023-10-09T11:51:47.821Z,1016.86
2023-10-09T11:52:47.853Z,1016.94
2023-10-09T11:53:47.816Z,1016.85
2023-10-09T11:54:47.807Z,1016.88
2023-10-09T11:55:47.839Z,1016.84
2023-10-09T11:56:47.777Z,1016.83
2023-10-09T11:57:47.792Z,1016.83
2023-10-09T11:58:47.792Z,1016.82
2023-10-09T11:59:47.795Z,1016.84
2023-10-09T12:00:47.804Z,1016.83
2023-10-09T12:01:47.780Z,1016.84
2023-10-09T12:02:47.855Z,1016.81
2023-10-09T12:03:47.742Z,1016.81
2023-10-09T12:04:47.819Z,1016.82
2023-10-09T12:05:47.690Z,1016.76
2023-10-09T12:06:47.656Z,1016.72
2023-10-09T12:07:47.679Z,1016.73
2023-10-09T12:08:47.638Z,1016.71
2023-10-09T12:09:47.653Z,1016.75